createdAt,value
2018-09-26T00:00:59.841Z,7.5
2018-09-26T00:02:00.513Z,7.4
2018-09-26T00:03:01.183Z,7.4
2018-09-26T00:04:01.852Z,7.4
2018-09-26T00:05:02.523Z,7.4
2018-09-26T00:06:03.192Z,7.5
2018-09-26T00:07:03.861Z,7.4
2018-09-26T00:08:04.530Z,7.5
2018-09-26T00:09:05.199Z,7.5
2018-09-26T00:10:05.878Z,7.4
2018-09-26T00:11:06.539Z,7.5
2018-09-26T00:12:07.209Z,7.5
2018-09-26T00:13:07.876Z,7.4
2018-09-26T00:14:08.545Z,7.4
2018-09-26T00:15:09.216Z,7.5
2018-09-26T00:16:09.885Z,7.4
2018-09-26T00:17:10.554Z,7.5
2018-09-26T00:18:11.222Z,7.4
2018-09-26T00:19:11.892Z,7.4
2018-09-26T00:20:12.563Z,7.4
2018-09-26T00:21:13.231Z,7.4
2018-09-26T00:22:13.900Z,7.4
2018-09-26T00:23:14.569Z,7.4
2018-09-26T00:24:15.239Z,7.4
2018-09-26T00:25:15.907Z,7.4
2018-09-26T00:26:16.577Z,7.4
2018-09-26T00:27:17.245Z,7.4
2018-09-26T00:28:17.916Z,7.4
2018-09-26T00:29:18.585Z,7.4
2018-09-26T00:30:19.255Z,7.4
2018-09-26T00:31:19.923Z,7.3
2018-09-26T00:32:20.593Z,7.4
2018-09-26T00:33:21.263Z,7.4
2018-09-26T00:34:21.937Z,7.3
2018-09-26T00:35:22.601Z,7.3
2018-09-26T00:36:23.270Z,7.3
2018-09-26T00:37:23.962Z,7.3
2018-09-26T00:38:24.609Z,7.4
2018-09-26T00:39:25.278Z,7.4
2018-09-26T00:40:25.946Z,7.3
2018-09-26T00:41:26.619Z,7.4
2018-09-26T00:42:27.330Z,7.3
2018-09-26T00:43:27.999Z,7.3
2018-09-26T00:44:28.669Z,7.3
2018-09-26T00:45:29.337Z,7.3
2018-09-26T00:46:30.006Z,7.2
2018-09-26T00:47:30.673Z,7.2
2018-09-26T00:48:31.344Z,7.3
2018-09-26T00:49:32.057Z,7.2
2018-09-26T00:50:32.728Z,7.2
2018-09-26T00:51:33.442Z,7.1
2018-09-26T00:52:34.111Z,7.2
2018-09-26T00:53:34.779Z,7.3
2018-09-26T00:54:35.450Z,7.2
2018-09-26T00:55:36.117Z,7.2
2018-09-26T00:56:36.787Z,7.2
2018-09-26T00:57:37.454Z,7.2
2018-09-26T00:58:38.124Z,7.2
2018-09-26T00:59:38.794Z,7.2
2018-09-26T01:00:39.463Z,7.2
2018-09-26T01:01:40.133Z,7.2
2018-09-26T01:02:40.802Z,7.1
2018-09-26T01:03:41.472Z,7.1
2018-09-26T01:04:42.141Z,7.1
2018-09-26T01:05:42.810Z,7.2
2018-09-26T01:06:43.479Z,7.3
2018-09-26T01:07:44.149Z,7.2
2018-09-26T01:08:44.820Z,7.2
2018-09-26T01:09:45.487Z,7.1
2018-09-26T01:10:46.157Z,7.2
2018-09-26T01:11:46.828Z,7.2
2018-09-26T01:12:47.495Z,7.2
2018-09-26T01:13:48.163Z,7.2
2018-09-26T01:14:48.834Z,7.2
2018-09-26T01:15:49.501Z,7.2
2018-09-26T01:16:50.170Z,7.2
2018-09-26T01:17:50.839Z,7.2
2018-09-26T01:18:51.508Z,7.2
2018-09-26T01:19:52.177Z,7.1
2018-09-26T01:20:52.848Z,7.1
2018-09-26T01:21:53.516Z,7.1
2018-09-26T01:22:54.231Z,7.0
2018-09-26T01:23:54.899Z,7.1
2018-09-26T01:24:55.570Z,7.1
2018-09-26T01:25:56.238Z,7.1
2018-09-26T01:26:56.915Z,7.0
2018-09-26T01:27:57.622Z,7.1
2018-09-26T01:28:58.294Z,7.1
2018-09-26T01:29:59.009Z,6.9
2018-09-26T01:30:59.679Z,7.1
2018-09-26T01:32:00.348Z,7.1
2018-09-26T01:33:01.020Z,7.2
2018-09-26T01:34:01.688Z,7.1
2018-09-26T01:35:02.362Z,7.1
2018-09-26T01:36:03.071Z,7.1
2018-09-26T01:37:03.740Z,7.1
2018-09-26T01:38:04.410Z,7.0
2018-09-26T01:39:05.079Z,7.1
2018-09-26T01:40:05.748Z,7.1
2018-09-26T01:41:06.417Z,7.0
2018-09-26T01:42:07.089Z,7.1
2018-09-26T01:43:07.756Z,7.0
2018-09-26T01:44:08.425Z,7.1
2018-09-26T01:45:09.094Z,7.1
2018-09-26T01:46:09.763Z,7.1
2018-09-26T01:47:10.434Z,7.1
2018-09-26T01:48:11.102Z,7.1
2018-09-26T01:49:11.775Z,7.1
2018-09-26T01:50:12.441Z,7.1
2018-09-26T01:51:13.109Z,7.1
2018-09-26T01:52:13.778Z,7.1
2018-09-26T01:53:14.447Z,7.0
2018-09-26T01:54:15.118Z,7.0
2018-09-26T01:55:15.787Z,7.1
2018-09-26T01:56:16.456Z,7.2
2018-09-26T01:57:17.124Z,7.2
2018-09-26T01:58:17.794Z,7.2
2018-09-26T01:59:18.463Z,7.1
2018-09-26T02:00:19.132Z,7.1
2018-09-26T02:01:19.846Z,7.1
2018-09-26T02:02:20.518Z,7.2
2018-09-26T02:03:21.186Z,7.2
2018-09-26T02:04:21.855Z,7.2
2018-09-26T02:05:22.526Z,7.1
2018-09-26T02:06:23.195Z,7.2
2018-09-26T02:07:23.864Z,7.2
2018-09-26T02:08:24.533Z,7.1
2018-09-26T02:09:25.201Z,7.2
2018-09-26T02:10:25.870Z,7.1
2018-09-26T02:11:26.539Z,7.0
2018-09-26T02:12:27.208Z,7.1
2018-09-26T02:13:27.877Z,7.0
2018-09-26T02:14:28.545Z,7.1
2018-09-26T02:15:29.215Z,7.2
2018-09-26T02:16:29.884Z,7.1
2018-09-26T02:17:30.554Z,7.1
2018-09-26T02:18:31.222Z,7.1
2018-09-26T02:19:31.893Z,7.1
2018-09-26T02:20:32.561Z,7.1
2018-09-26T02:21:33.230Z,7.1
2018-09-26T02:22:33.899Z,7.0
2018-09-26T02:23:34.572Z,7.1
2018-09-26T02:24:35.238Z,7.1
2018-09-26T02:25:35.906Z,7.0
2018-09-26T02:26:36.575Z,7.1
2018-09-26T02:27:37.249Z,7.0
2018-09-26T02:28:37.915Z,7.1
2018-09-26T02:29:38.583Z,7.2
2018-09-26T02:30:39.263Z,7.1
2018-09-26T02:31:39.924Z,7.1
2018-09-26T02:32:40.591Z,7.1
2018-09-26T02:33:41.259Z,7.1
2018-09-26T02:34:41.929Z,7.1
2018-09-26T02:35:42.600Z,7.1
2018-09-26T02:36:43.266Z,7.2
2018-09-26T02:37:43.937Z,7.2
2018-09-26T02:38:44.649Z,7.2
2018-09-26T02:39:45.320Z,7.1
2018-09-26T02:40:46.033Z,7.2
2018-09-26T02:41:46.746Z,7.1
2018-09-26T02:42:47.414Z,7.2
2018-09-26T02:43:48.083Z,7.2
2018-09-26T02:44:48.753Z,7.2
2018-09-26T02:45:49.422Z,7.1
2018-09-26T02:46:50.092Z,7.2
2018-09-26T02:47:50.760Z,7.1
2018-09-26T02:48:51.430Z,7.2
2018-09-26T02:49:52.099Z,7.1
2018-09-26T02:50:52.767Z,7.2
2018-09-26T02:51:53.437Z,7.2
2018-09-26T02:52:54.150Z,7.2
2018-09-26T02:53:54.820Z,7.1
2018-09-26T02:54:55.491Z,7.2
2018-09-26T02:55:56.205Z,7.1
2018-09-26T02:56:56.874Z,7.1
2018-09-26T02:57:57.543Z,7.2
2018-09-26T02:58:58.212Z,7.3
2018-09-26T02:59:58.883Z,7.2
2018-09-26T03:00:59.550Z,7.2
2018-09-26T03:02:00.220Z,7.2
2018-09-26T03:03:00.889Z,7.2
2018-09-26T03:04:01.557Z,7.2
2018-09-26T03:05:02.264Z,7.3
2018-09-26T03:06:02.894Z,7.3
2018-09-26T03:07:03.565Z,7.3
2018-09-26T03:08:04.232Z,7.3
2018-09-26T03:09:04.901Z,7.3
2018-09-26T03:10:05.570Z,7.4
2018-09-26T03:11:06.242Z,7.4
2018-09-26T03:12:06.910Z,7.5
2018-09-26T03:13:07.584Z,7.5
2018-09-26T03:14:08.248Z,7.5
2018-09-26T03:15:08.919Z,7.5
2018-09-26T03:16:09.592Z,7.6
2018-09-26T03:17:10.258Z,7.6
2018-09-26T03:18:10.928Z,7.6
2018-09-26T03:19:11.596Z,7.8
2018-09-26T03:20:12.265Z,7.7
2018-09-26T03:21:12.946Z,7.7
2018-09-26T03:22:13.603Z,7.8
2018-09-26T03:23:14.271Z,7.7
2018-09-26T03:24:14.989Z,7.8
2018-09-26T03:25:15.655Z,7.9
2018-09-26T03:26:16.324Z,7.9
2018-09-26T03:27:16.993Z,7.9
2018-09-26T03:28:17.663Z,7.9
2018-09-26T03:29:18.332Z,7.9
2018-09-26T03:30:19.001Z,7.9
2018-09-26T03:31:19.673Z,8.0
2018-09-26T03:32:20.384Z,8.0
2018-09-26T03:33:21.056Z,7.9
2018-09-26T03:34:21.768Z,8.0
2018-09-26T03:35:22.437Z,8.0
2018-09-26T03:36:23.106Z,8.1
2018-09-26T03:37:23.777Z,8.0
2018-09-26T03:38:24.446Z,8.0
2018-09-26T03:39:25.117Z,8.0
2018-09-26T03:40:25.784Z,8.0
2018-09-26T03:41:26.461Z,8.0
2018-09-26T03:42:27.122Z,8.0
2018-09-26T03:43:27.792Z,8.0
2018-09-26T03:44:28.459Z,8.0
2018-09-26T03:45:29.134Z,8.0
2018-09-26T03:46:29.799Z,8.0
2018-09-26T03:47:30.467Z,8.0
2018-09-26T03:48:31.137Z,8.0
2018-09-26T03:49:31.806Z,8.0
2018-09-26T03:50:32.477Z,7.9
2018-09-26T03:51:33.148Z,7.9
2018-09-26T03:52:33.822Z,7.9
2018-09-26T03:53:34.529Z,7.9
2018-09-26T03:54:35.200Z,8.0
2018-09-26T03:55:35.868Z,8.0
2018-09-26T03:56:36.538Z,8.0
2018-09-26T03:57:37.210Z,8.0
2018-09-26T03:58:37.879Z,8.0
2018-09-26T03:59:38.553Z,8.0
2018-09-26T04:00:39.218Z,8.1
2018-09-26T04:01:39.888Z,8.1
2018-09-26T04:02:40.601Z,8.1
2018-09-26T04:03:41.271Z,8.1
2018-09-26T04:04:41.945Z,8.1
2018-09-26T04:05:42.609Z,8.2
2018-09-26T04:06:43.276Z,8.1
2018-09-26T04:07:43.948Z,8.2
2018-09-26T04:08:44.627Z,8.2
2018-09-26T04:09:45.286Z,8.3
2018-09-26T04:10:45.954Z,8.1
2018-09-26T04:11:46.624Z,8.2
2018-09-26T04:12:47.388Z,8.2
2018-09-26T04:13:47.969Z,8.3
2018-09-26T04:14:48.633Z,8.1
2018-09-26T04:15:49.406Z,8.2
2018-09-26T04:16:50.024Z,8.2
2018-09-26T04:17:50.697Z,8.2
2018-09-26T04:18:51.407Z,8.3
2018-09-26T04:19:52.073Z,8.2
2018-09-26T04:20:52.743Z,8.2
2018-09-26T04:21:53.413Z,8.2
2018-09-26T04:22:54.081Z,8.1
2018-09-26T04:23:54.751Z,8.1
2018-09-26T04:24:55.423Z,8.1
2018-09-26T04:25:56.091Z,8.1
2018-09-26T04:26:57.017Z,8.0
2018-09-26T04:27:57.431Z,8.0
2018-09-26T04:28:58.148Z,8.0
2018-09-26T04:29:58.828Z,8.0
2018-09-26T04:30:59.487Z,7.9
2018-09-26T04:32:00.204Z,7.9
2018-09-26T04:33:01.108Z,7.9
2018-09-26T04:34:01.543Z,7.8
2018-09-26T04:35:02.214Z,7.8
2018-09-26T04:36:02.927Z,7.8
2018-09-26T04:37:03.597Z,7.8
2018-09-26T04:38:04.269Z,7.7
2018-09-26T04:39:04.940Z,7.8
2018-09-26T04:40:05.606Z,7.7
2018-09-26T04:41:06.277Z,7.7
2018-09-26T04:42:06.945Z,7.7
2018-09-26T04:43:07.621Z,7.6
2018-09-26T04:44:08.283Z,7.7
2018-09-26T04:45:08.951Z,7.7
2018-09-26T04:46:09.620Z,7.5
2018-09-26T04:47:10.289Z,7.5
2018-09-26T04:48:10.957Z,7.6
2018-09-26T04:49:11.628Z,7.6
2018-09-26T04:50:12.299Z,7.7
2018-09-26T04:51:12.970Z,7.6
2018-09-26T04:52:13.641Z,7.6
2018-09-26T04:53:14.312Z,7.7
2018-09-26T04:54:15.027Z,7.6
2018-09-26T04:55:15.698Z,7.7
2018-09-26T04:56:16.367Z,7.6
2018-09-26T04:57:17.039Z,7.7
2018-09-26T04:58:17.741Z,7.6
2018-09-26T04:59:18.380Z,7.5
2018-09-26T05:00:19.051Z,7.5
2018-09-26T05:01:19.723Z,7.5
2018-09-26T05:02:20.392Z,7.5
2018-09-26T05:03:21.063Z,7.4
2018-09-26T05:04:21.734Z,7.4
2018-09-26T05:05:22.406Z,7.4
2018-09-26T05:06:23.078Z,7.5
2018-09-26T05:07:23.771Z,7.5
2018-09-26T05:08:24.494Z,7.4
2018-09-26T05:09:25.137Z,7.4
2018-09-26T05:10:25.809Z,7.4
2018-09-26T05:11:26.479Z,7.3
2018-09-26T05:12:27.153Z,7.3
2018-09-26T05:13:27.824Z,7.4
2018-09-26T05:14:28.540Z,7.3
2018-09-26T05:15:29.212Z,7.3
2018-09-26T05:16:29.882Z,7.2
2018-09-26T05:17:30.554Z,7.2
2018-09-26T05:18:31.271Z,7.3
2018-09-26T05:19:31.943Z,7.2
2018-09-26T05:20:32.617Z,7.2
2018-09-26T05:21:33.288Z,7.2
2018-09-26T05:22:33.961Z,7.3
2018-09-26T05:23:34.633Z,7.2
2018-09-26T05:24:35.305Z,7.3
2018-09-26T05:25:35.978Z,7.3
2018-09-26T05:26:36.650Z,7.2
2018-09-26T05:27:37.323Z,7.3
2018-09-26T05:28:37.996Z,7.2
2018-09-26T05:29:38.669Z,7.2
2018-09-26T05:30:39.342Z,7.3
2018-09-26T05:31:40.014Z,7.3
2018-09-26T05:32:40.687Z,7.3
2018-09-26T05:33:41.360Z,7.3
2018-09-26T05:34:42.034Z,7.3
2018-09-26T05:35:42.757Z,7.3
2018-09-26T05:36:43.429Z,7.3
2018-09-26T05:37:44.100Z,7.4
2018-09-26T05:38:44.774Z,7.4
2018-09-26T05:39:45.449Z,7.5
2018-09-26T05:40:46.121Z,7.5
2018-09-26T05:41:46.858Z,7.5
2018-09-26T05:42:47.512Z,7.6
2018-09-26T05:43:48.180Z,7.5
2018-09-26T05:44:48.855Z,7.5
2018-09-26T05:45:49.529Z,7.5
2018-09-26T05:46:50.203Z,7.6
2018-09-26T05:47:50.878Z,7.6
2018-09-26T05:48:51.555Z,7.7
2018-09-26T05:49:52.224Z,7.7
2018-09-26T05:50:52.899Z,7.6
2018-09-26T05:51:53.573Z,7.7
2018-09-26T05:52:54.245Z,7.7
2018-09-26T05:53:54.925Z,7.6
2018-09-26T05:54:55.594Z,7.6
2018-09-26T05:55:56.312Z,7.6
2018-09-26T05:56:56.986Z,7.6
2018-09-26T05:57:57.661Z,7.6
2018-09-26T05:58:58.333Z,7.6
2018-09-26T05:59:59.007Z,7.8
2018-09-26T06:00:59.680Z,7.7
2018-09-26T06:02:00.354Z,7.7
2018-09-26T06:03:01.031Z,7.7
2018-09-26T06:04:01.702Z,7.7
2018-09-26T06:05:02.378Z,7.7
2018-09-26T06:06:03.096Z,7.6
2018-09-26T06:07:03.813Z,7.8
2018-09-26T06:08:04.488Z,7.8
2018-09-26T06:09:05.160Z,7.7
2018-09-26T06:10:05.832Z,7.8
2018-09-26T06:11:06.506Z,7.8
2018-09-26T06:12:07.180Z,7.7
2018-09-26T06:13:07.903Z,7.7
2018-09-26T06:14:08.565Z,7.8
2018-09-26T06:15:09.287Z,7.7
2018-09-26T06:16:09.960Z,7.8
2018-09-26T06:17:10.633Z,7.7
2018-09-26T06:18:11.312Z,7.7
2018-09-26T06:19:12.027Z,7.8
2018-09-26T06:20:12.702Z,7.8
2018-09-26T06:21:13.375Z,7.8
2018-09-26T06:22:14.048Z,7.7
2018-09-26T06:23:14.720Z,7.8
2018-09-26T06:24:15.394Z,7.8
2018-09-26T06:25:16.069Z,7.7
2018-09-26T06:26:16.747Z,7.7
2018-09-26T06:27:17.417Z,7.7
2018-09-26T06:28:18.090Z,7.7
2018-09-26T06:29:18.764Z,7.7
2018-09-26T06:30:19.437Z,7.7
2018-09-26T06:31:20.111Z,7.8
2018-09-26T06:32:20.788Z,7.8
2018-09-26T06:33:21.507Z,7.7
2018-09-26T06:34:22.177Z,7.7
2018-09-26T06:35:22.853Z,7.7
2018-09-26T06:36:23.527Z,7.8
2018-09-26T06:37:24.203Z,7.7
2018-09-26T06:38:24.879Z,7.7
2018-09-26T06:39:25.548Z,7.7
2018-09-26T06:40:26.286Z,7.7
2018-09-26T06:41:26.992Z,7.7
2018-09-26T06:42:27.673Z,7.7
2018-09-26T06:43:28.338Z,7.8
2018-09-26T06:44:29.016Z,7.8
2018-09-26T06:45:29.688Z,7.8
2018-09-26T06:46:30.363Z,7.8
2018-09-26T06:47:31.044Z,7.9
2018-09-26T06:48:31.710Z,7.8
2018-09-26T06:49:32.383Z,7.9
2018-09-26T06:50:33.057Z,7.9
2018-09-26T06:51:33.731Z,7.9
2018-09-26T06:52:34.404Z,7.9
2018-09-26T06:53:35.079Z,8.0
2018-09-26T06:54:35.753Z,8.0
2018-09-26T06:55:36.425Z,8.0
2018-09-26T06:56:37.100Z,8.1
2018-09-26T06:57:37.774Z,8.1
2018-09-26T06:58:38.445Z,8.2
2018-09-26T06:59:39.123Z,8.1
2018-09-26T07:00:39.798Z,8.2
2018-09-26T07:01:40.470Z,8.3
2018-09-26T07:02:41.144Z,8.2
2018-09-26T07:03:41.819Z,8.3
2018-09-26T07:04:42.492Z,8.3
2018-09-26T07:05:43.171Z,8.4
2018-09-26T07:06:43.888Z,8.4
2018-09-26T07:07:44.562Z,8.3
2018-09-26T07:08:45.235Z,8.4
2018-09-26T07:09:45.911Z,8.5
2018-09-26T07:10:46.582Z,8.5
2018-09-26T07:11:47.256Z,8.5
2018-09-26T07:12:47.971Z,8.6
2018-09-26T07:13:48.649Z,8.6
2018-09-26T07:14:49.321Z,8.7
2018-09-26T07:15:49.997Z,8.8
2018-09-26T07:16:50.672Z,8.8
2018-09-26T07:17:51.347Z,8.9
2018-09-26T07:18:52.020Z,8.9
2018-09-26T07:19:52.693Z,8.9
2018-09-26T07:20:53.366Z,9.0
2018-09-26T07:21:54.041Z,9.0
2018-09-26T07:22:54.714Z,9.1
2018-09-26T07:23:55.399Z,9.1
2018-09-26T07:24:56.064Z,9.2
2018-09-26T07:25:56.738Z,9.2
2018-09-26T07:26:57.412Z,9.3
2018-09-26T07:27:58.090Z,9.4
2018-09-26T07:28:58.762Z,9.5
2018-09-26T07:29:59.436Z,9.5
2018-09-26T07:31:00.110Z,9.6
2018-09-26T07:32:00.785Z,9.7
2018-09-26T07:33:01.460Z,9.7
2018-09-26T07:34:02.139Z,9.9
2018-09-26T07:35:02.812Z,9.9
2018-09-26T07:36:03.533Z,10.0
2018-09-26T07:37:04.209Z,10.0
2018-09-26T07:38:04.886Z,10.1
2018-09-26T07:39:05.564Z,10.2
2018-09-26T07:40:06.241Z,10.4
2018-09-26T07:41:06.964Z,10.5
2018-09-26T07:42:07.640Z,10.6
2018-09-26T07:43:08.318Z,10.6
2018-09-26T07:44:08.996Z,10.9
2018-09-26T07:45:09.672Z,11.1
2018-09-26T07:46:10.350Z,11.4
2018-09-26T07:47:11.030Z,11.7
2018-09-26T07:48:11.756Z,12.1
2018-09-26T07:49:12.433Z,12.5
2018-09-26T07:50:13.110Z,12.9
2018-09-26T07:51:13.834Z,13.4
2018-09-26T07:52:14.555Z,13.9
2018-09-26T07:53:15.234Z,14.2
2018-09-26T07:54:15.913Z,14.6
2018-09-26T07:55:16.590Z,14.9
2018-09-26T07:56:17.268Z,15.4
2018-09-26T07:57:17.946Z,15.6
2018-09-26T07:58:18.628Z,15.9
2018-09-26T07:59:19.306Z,16.3
2018-09-26T08:00:19.984Z,16.7
2018-09-26T08:01:20.664Z,16.9
2018-09-26T08:02:21.341Z,17.2
2018-09-26T08:03:22.021Z,17.1
2018-09-26T08:04:22.699Z,17.1
2018-09-26T08:05:23.378Z,17.2
2018-09-26T08:06:24.059Z,17.3
2018-09-26T08:07:24.738Z,17.6
2018-09-26T08:08:25.418Z,17.7
2018-09-26T08:09:26.099Z,17.7
2018-09-26T08:10:26.780Z,17.7
2018-09-26T08:11:27.523Z,17.9
2018-09-26T08:12:28.140Z,18.1
2018-09-26T08:13:28.820Z,18.4
2018-09-26T08:14:29.502Z,18.6
2018-09-26T08:15:30.228Z,18.8
2018-09-26T08:16:30.910Z,18.9
2018-09-26T08:17:31.590Z,19.0
2018-09-26T08:18:32.331Z,19.2
2018-09-26T08:19:32.953Z,19.3
2018-09-26T08:20:33.635Z,19.5
2018-09-26T08:21:34.315Z,19.5
2018-09-26T08:22:34.994Z,19.7
2018-09-26T08:23:35.730Z,19.9
2018-09-26T08:24:36.357Z,20.0
2018-09-26T08:25:37.039Z,20.2
2018-09-26T08:26:37.721Z,20.3
2018-09-26T08:27:38.403Z,20.4
2018-09-26T08:28:39.085Z,20.5
2018-09-26T08:29:39.772Z,20.5
2018-09-26T08:30:40.449Z,20.6
2018-09-26T08:31:41.130Z,20.7
2018-09-26T08:32:41.814Z,20.7
2018-09-26T08:33:42.496Z,20.7
2018-09-26T08:34:43.177Z,20.8
2018-09-26T08:35:43.860Z,20.9
2018-09-26T08:36:44.541Z,20.8
2018-09-26T08:37:45.224Z,20.7
2018-09-26T08:38:45.906Z,20.7
2018-09-26T08:39:46.588Z,20.9
2018-09-26T08:40:47.272Z,20.8
2018-09-26T08:41:47.954Z,21.0
2018-09-26T08:42:48.637Z,20.9
2018-09-26T08:43:49.363Z,20.9
2018-09-26T08:44:50.008Z,21.0
2018-09-26T08:45:50.689Z,20.9
2018-09-26T08:46:51.372Z,20.9
2018-09-26T08:47:52.056Z,20.9
2018-09-26T08:48:52.783Z,20.8
2018-09-26T08:49:53.464Z,20.8
2018-09-26T08:50:54.148Z,20.7
2018-09-26T08:51:54.833Z,20.6
2018-09-26T08:52:55.517Z,20.7
2018-09-26T08:53:56.201Z,20.8
2018-09-26T08:54:56.883Z,20.8
2018-09-26T08:55:57.613Z,20.8
2018-09-26T08:56:58.299Z,20.9
2018-09-26T08:57:58.984Z,20.8
2018-09-26T08:58:59.667Z,20.7
2018-09-26T09:00:00.349Z,20.7
2018-09-26T09:01:01.034Z,20.8
2018-09-26T09:02:01.761Z,20.8
2018-09-26T09:03:02.447Z,20.7
2018-09-26T09:04:03.131Z,20.7
2018-09-26T09:05:03.813Z,20.7
2018-09-26T09:06:04.536Z,20.7
2018-09-26T09:07:05.179Z,20.8
2018-09-26T09:08:05.863Z,20.9
2018-09-26T09:09:06.547Z,20.9
2018-09-26T09:10:07.275Z,21.0
2018-09-26T09:11:07.958Z,21.1
2018-09-26T09:12:08.641Z,21.1
2018-09-26T09:13:09.326Z,21.1
2018-09-26T09:14:10.026Z,21.3
2018-09-26T09:15:10.694Z,21.3
2018-09-26T09:16:11.377Z,21.2
2018-09-26T09:17:12.061Z,21.2
2018-09-26T09:18:12.747Z,21.2
2018-09-26T09:19:13.474Z,21.1
2018-09-26T09:20:14.213Z,21.0
2018-09-26T09:21:14.842Z,21.0
2018-09-26T09:22:15.525Z,21.0
2018-09-26T09:23:16.209Z,21.0
2018-09-26T09:24:16.892Z,21.0
2018-09-26T09:25:17.575Z,21.0
2018-09-26T09:26:18.296Z,21.0
2018-09-26T09:27:18.998Z,20.9
2018-09-26T09:28:19.627Z,20.8
2018-09-26T09:29:20.311Z,20.8
2018-09-26T09:30:20.994Z,20.8
2018-09-26T09:31:21.681Z,20.7
2018-09-26T09:32:22.460Z,20.6
2018-09-26T09:33:23.093Z,20.4
2018-09-26T09:34:23.821Z,20.3
2018-09-26T09:35:24.504Z,20.4
2018-09-26T09:36:25.216Z,20.4
2018-09-26T09:37:25.919Z,20.5
2018-09-26T09:38:26.603Z,20.5
2018-09-26T09:39:27.286Z,20.6
2018-09-26T09:40:27.973Z,20.5
2018-09-26T09:41:28.702Z,20.4
2018-09-26T09:42:29.386Z,20.1
2018-09-26T09:43:30.069Z,20.0
2018-09-26T09:44:30.818Z,19.8
2018-09-26T09:45:31.435Z,19.7
2018-09-26T09:46:32.166Z,19.6
2018-09-26T09:47:32.853Z,19.6
2018-09-26T09:48:33.533Z,19.5
2018-09-26T09:49:34.215Z,19.5
2018-09-26T09:50:34.899Z,19.4
2018-09-26T09:51:35.676Z,19.4
2018-09-26T09:52:36.270Z,19.4
2018-09-26T09:53:36.949Z,19.4
2018-09-26T09:54:37.679Z,19.4
2018-09-26T09:55:38.361Z,19.3
2018-09-26T09:56:39.049Z,19.3
2018-09-26T09:57:39.730Z,19.2
2018-09-26T09:58:40.412Z,19.2
2018-09-26T09:59:41.112Z,19.0
2018-09-26T10:00:41.781Z,18.8
2018-09-26T10:01:42.464Z,18.8
2018-09-26T10:02:43.191Z,18.7
2018-09-26T10:03:43.842Z,18.6
2018-09-26T10:04:44.511Z,18.4
2018-09-26T10:05:45.195Z,18.2
2018-09-26T10:06:45.877Z,18.1
2018-09-26T10:07:46.559Z,18.0
2018-09-26T10:08:47.292Z,18.0
2018-09-26T10:09:47.925Z,17.8
2018-09-26T10:10:48.607Z,17.7
2018-09-26T10:11:49.289Z,17.8
2018-09-26T10:12:49.973Z,17.7
2018-09-26T10:13:50.658Z,17.7
2018-09-26T10:14:51.384Z,17.7
2018-09-26T10:15:52.113Z,17.7
2018-09-26T10:16:52.795Z,17.6
2018-09-26T10:17:53.478Z,17.7
2018-09-26T10:18:54.161Z,17.6
2018-09-26T10:19:54.845Z,17.6
2018-09-26T10:20:55.527Z,17.5
2018-09-26T10:21:56.208Z,17.5
2018-09-26T10:22:56.891Z,17.5
2018-09-26T10:23:57.574Z,17.4
2018-09-26T10:24:58.302Z,17.4
2018-09-26T10:25:58.937Z,17.4
2018-09-26T10:26:59.618Z,17.3
2018-09-26T10:28:00.350Z,17.3
2018-09-26T10:29:01.078Z,17.3
2018-09-26T10:30:01.760Z,17.4
2018-09-26T10:31:02.442Z,17.3
2018-09-26T10:32:03.123Z,17.3
2018-09-26T10:33:03.807Z,17.4
2018-09-26T10:34:04.489Z,17.3
2018-09-26T10:35:05.274Z,17.3
2018-09-26T10:36:05.852Z,17.3
2018-09-26T10:37:06.532Z,17.3
2018-09-26T10:38:07.224Z,17.3
2018-09-26T10:39:07.943Z,17.3
2018-09-26T10:40:08.626Z,17.4
2018-09-26T10:41:09.306Z,17.2
2018-09-26T10:42:09.987Z,17.3
2018-09-26T10:43:10.670Z,17.3
2018-09-26T10:44:11.411Z,17.4
2018-09-26T10:45:12.072Z,17.4
2018-09-26T10:46:12.752Z,17.4
2018-09-26T10:47:13.436Z,17.5
2018-09-26T10:48:14.117Z,17.4
2018-09-26T10:49:14.801Z,17.5
2018-09-26T10:50:15.580Z,17.5
2018-09-26T10:51:16.241Z,17.5
2018-09-26T10:52:16.941Z,17.5
2018-09-26T10:53:17.668Z,17.5
2018-09-26T10:54:18.349Z,17.4
2018-09-26T10:55:19.031Z,17.5
2018-09-26T10:56:19.759Z,17.5
2018-09-26T10:57:20.396Z,17.5
2018-09-26T10:58:21.081Z,17.6
2018-09-26T10:59:21.809Z,17.5
2018-09-26T11:00:22.486Z,17.6
2018-09-26T11:01:23.169Z,17.6
2018-09-26T11:02:23.917Z,17.8
2018-09-26T11:03:24.536Z,17.8
2018-09-26T11:04:25.316Z,17.8
2018-09-26T11:05:25.901Z,17.8
2018-09-26T11:06:26.625Z,17.9
2018-09-26T11:07:27.306Z,17.9
2018-09-26T11:08:27.999Z,18.0
2018-09-26T11:09:28.672Z,18.0
2018-09-26T11:10:29.355Z,18.0
2018-09-26T11:11:30.040Z,18.1
2018-09-26T11:12:30.778Z,18.2
2018-09-26T11:13:31.403Z,18.3
2018-09-26T11:14:32.088Z,18.4
2018-09-26T11:15:32.771Z,18.4
2018-09-26T11:16:33.453Z,18.3
2018-09-26T11:17:34.136Z,18.3
2018-09-26T11:18:34.819Z,18.3
2018-09-26T11:19:35.502Z,18.4
2018-09-26T11:20:36.183Z,18.4
2018-09-26T11:21:36.867Z,18.5
2018-09-26T11:22:37.550Z,18.5
2018-09-26T11:23:38.233Z,18.6
2018-09-26T11:24:38.915Z,18.5
2018-09-26T11:25:39.596Z,18.7
2018-09-26T11:26:40.311Z,18.7
2018-09-26T11:27:40.963Z,18.8
2018-09-26T11:28:41.693Z,18.8
2018-09-26T11:29:42.376Z,18.8
2018-09-26T11:30:43.058Z,18.8
2018-09-26T11:31:43.742Z,18.9
2018-09-26T11:32:44.426Z,18.9
2018-09-26T11:33:45.210Z,18.9
2018-09-26T11:34:45.837Z,18.9
2018-09-26T11:35:46.563Z,18.8
2018-09-26T11:36:47.245Z,18.9
2018-09-26T11:37:47.932Z,18.9
2018-09-26T11:38:48.612Z,19.0
2018-09-26T11:39:49.296Z,19.0
2018-09-26T11:40:49.978Z,19.0
2018-09-26T11:41:50.662Z,19.0
2018-09-26T11:42:51.343Z,19.0
2018-09-26T11:43:52.026Z,19.0
2018-09-26T11:44:52.708Z,19.0
2018-09-26T11:45:53.390Z,19.0
2018-09-26T11:46:54.075Z,19.0
2018-09-26T11:47:54.758Z,19.0
2018-09-26T11:48:55.440Z,19.0
2018-09-26T11:49:56.123Z,19.1
2018-09-26T11:50:56.853Z,19.2
2018-09-26T11:51:57.539Z,19.1
2018-09-26T11:52:58.218Z,19.1
2018-09-26T11:53:58.901Z,19.2
2018-09-26T11:54:59.584Z,19.2
2018-09-26T11:56:00.334Z,19.2
2018-09-26T11:57:00.988Z,19.3
2018-09-26T11:58:01.791Z,19.3
2018-09-26T11:59:02.417Z,19.5
2018-09-26T12:00:03.147Z,19.5
2018-09-26T12:01:03.829Z,19.4
2018-09-26T12:02:04.553Z,19.4
2018-09-26T12:03:05.194Z,19.3
2018-09-26T12:04:05.878Z,19.3
2018-09-26T12:05:06.561Z,19.4
2018-09-26T12:06:07.290Z,19.4
2018-09-26T12:07:07.985Z,19.4
2018-09-26T12:08:08.655Z,19.4
2018-09-26T12:09:09.293Z,19.4
2018-09-26T12:10:10.033Z,19.4
2018-09-26T12:11:10.697Z,19.4
2018-09-26T12:12:11.452Z,19.3
2018-09-26T12:13:12.108Z,19.3
2018-09-26T12:14:12.829Z,19.2
2018-09-26T12:15:13.509Z,19.2
2018-09-26T12:16:14.236Z,19.2
2018-09-26T12:17:14.870Z,19.1
2018-09-26T12:18:15.605Z,19.0
2018-09-26T12:19:16.283Z,18.9
2018-09-26T12:20:16.921Z,18.8
2018-09-26T12:21:30.251Z,18.7
2018-09-26T12:22:18.371Z,18.8
2018-09-26T12:23:18.968Z,18.8
2018-09-26T12:24:19.735Z,18.8
2018-09-26T12:25:20.375Z,18.8
2018-09-26T12:26:21.017Z,18.8
2018-09-26T12:27:21.701Z,18.8
2018-09-26T12:28:22.450Z,18.7
2018-09-26T12:29:23.067Z,18.8
2018-09-26T12:30:23.826Z,18.8
2018-09-26T12:31:24.434Z,18.8
2018-09-26T12:32:25.116Z,18.8
2018-09-26T12:33:25.797Z,18.8
2018-09-26T12:34:26.569Z,18.9
2018-09-26T12:35:27.211Z,18.9
2018-09-26T12:36:27.979Z,19.0
2018-09-26T12:37:28.614Z,19.0
2018-09-26T12:38:29.297Z,19.1
2018-09-26T12:39:29.980Z,19.1
2018-09-26T12:40:30.663Z,19.2
2018-09-26T12:41:31.346Z,19.1
2018-09-26T12:42:32.059Z,19.1
2018-09-26T12:43:32.713Z,19.1
2018-09-26T12:44:33.396Z,19.0
2018-09-26T12:45:34.079Z,19.0
2018-09-26T12:46:34.773Z,19.0
2018-09-26T12:47:35.493Z,19.1
2018-09-26T12:48:36.275Z,19.1
2018-09-26T12:49:36.905Z,19.2
2018-09-26T12:50:37.585Z,19.2
2018-09-26T12:51:38.268Z,19.2
2018-09-26T12:52:38.951Z,19.3
2018-09-26T12:53:39.733Z,19.2
2018-09-26T12:54:40.318Z,19.2
2018-09-26T12:55:41.000Z,19.3
2018-09-26T12:56:41.687Z,19.2
2018-09-26T12:57:42.365Z,19.2
2018-09-26T12:58:43.049Z,19.1
2018-09-26T12:59:43.736Z,19.1
2018-09-26T13:00:44.538Z,19.1
2018-09-26T13:01:45.183Z,19.0
2018-09-26T13:02:45.914Z,19.0
2018-09-26T13:03:46.553Z,19.0
2018-09-26T13:04:47.235Z,18.9
2018-09-26T13:05:47.919Z,18.9
2018-09-26T13:06:48.601Z,18.8
2018-09-26T13:07:49.285Z,18.9
2018-09-26T13:08:49.968Z,18.9
2018-09-26T13:09:50.692Z,18.9
2018-09-26T13:10:51.381Z,18.8
2018-09-26T13:11:52.064Z,18.8
2018-09-26T13:12:52.748Z,18.8
2018-09-26T13:13:53.430Z,18.8
2018-09-26T13:14:54.150Z,18.8
2018-09-26T13:15:54.843Z,18.7
2018-09-26T13:16:55.527Z,18.6
2018-09-26T13:17:56.209Z,18.7
2018-09-26T13:18:56.923Z,18.7
2018-09-26T13:19:57.577Z,18.7
2018-09-26T13:20:58.263Z,18.7
2018-09-26T13:21:58.941Z,18.7
2018-09-26T13:22:59.624Z,18.8
2018-09-26T13:24:00.306Z,18.8
2018-09-26T13:25:01.037Z,18.7
2018-09-26T13:26:01.723Z,18.7
2018-09-26T13:27:02.448Z,18.8
2018-09-26T13:28:03.131Z,18.7
2018-09-26T13:29:03.814Z,18.8
2018-09-26T13:30:04.521Z,18.7
2018-09-26T13:31:05.200Z,18.8
2018-09-26T13:32:05.884Z,18.7
2018-09-26T13:33:06.542Z,18.7
2018-09-26T13:34:07.322Z,18.6
2018-09-26T13:35:07.992Z,18.6
2018-09-26T13:36:08.711Z,18.6
2018-09-26T13:37:09.356Z,18.6
2018-09-26T13:38:10.043Z,18.6
2018-09-26T13:39:10.890Z,18.5
2018-09-26T13:40:11.475Z,18.5
2018-09-26T13:41:12.125Z,18.5
2018-09-26T13:42:12.821Z,18.5
2018-09-26T13:43:13.493Z,18.5